Time;durP1;ratioP1;P1;durP2;ratioP2;P2;SDS_P1;SDS_P2;PMS_P1;PMS_P2;Temp;Humidity;BMP_temperature;BMP_pressure;BME280_temperature;BME280_humidity;BME280_pressure;Samples;Min_cycle;Max_cycle;Signal;HPM_P1;HPM_P2
2023/04/19 00:00:31;;;;;;;1.10;1.00;;;;;;;22.43;38.59;102623.81;5021894;28;96742;-74
2023/04/19 00:02:59;;;;;;;1.23;1.13;;;;;;;22.44;38.70;102616.44;5024583;28;96676;-74
2023/04/19 00:05:27;;;;;;;1.20;1.10;;;;;;;22.45;38.58;102618.19;5022616;28;96806;-74
2023/04/19 00:07:53;;;;;;;1.08;0.98;;;;;;;22.44;38.79;102610.97;5024080;28;96954;-74
2023/04/19 00:10:20;;;;;;;1.20;1.10;;;;;;;22.45;38.94;102618.19;5020966;27;96840;-75
2023/04/19 00:12:46;;;;;;;0.95;0.85;;;;;;;22.45;38.72;102618.19;5017771;27;97160;-74
2023/04/19 00:15:13;;;;;;;0.95;0.90;;;;;;;22.45;38.51;102613.56;5019541;28;97627;-75
2023/04/19 00:17:40;;;;;;;1.00;0.90;;;;;;;22.45;38.60;102616.31;5023292;28;97297;-75
2023/04/19 00:20:09;;;;;;;1.20;1.10;;;;;;;22.46;38.47;102609.81;5027338;28;96803;-75
2023/04/19 00:22:35;;;;;;;0.77;0.77;;;;;;;22.46;38.52;102608.97;5018243;28;96837;-74
2023/04/19 00:25:02;;;;;;;1.25;1.15;;;;;;;22.46;38.73;102609.81;5006826;28;99702;-74
2023/04/19 00:27:29;;;;;;;1.08;0.98;;;;;;;22.47;38.81;102610.69;5024985;28;97245;-75
2023/04/19 00:29:59;;;;;;;1.00;0.90;;;;;;;22.46;38.71;102606.22;5021583;27;96693;-75
2023/04/19 00:32:25;;;;;;;0.88;0.88;;;;;;;22.46;38.77;102606.22;5017405;28;97056;-75
2023/04/19 00:34:52;;;;;;;1.13;1.02;;;;;;;22.45;38.65;102602.63;5001610;28;100345;-74
2023/04/19 00:37:20;;;;;;;1.27;0.82;;;;;;;22.46;38.88;102608.97;5024725;27;97420;-74
2023/04/19 00:39:46;;;;;;;0.80;0.80;;;;;;;22.46;38.45;102606.22;5023746;27;98205;-75
2023/04/19 00:42:13;;;;;;;1.10;1.00;;;;;;;22.45;38.51;102597.16;5018464;27;96760;-75
2023/04/19 00:44:39;;;;;;;0.90;0.90;;;;;;;22.45;38.90;102602.63;5004908;27;98758;-75
2023/04/19 00:47:07;;;;;;;1.00;0.90;;;;;;;22.45;38.82;102602.63;5030257;27;96890;-74
2023/04/19 00:49:34;;;;;;;0.95;0.90;;;;;;;22.45;38.65;102593.53;5021390;27;96692;-74
2023/04/19 00:52:01;;;;;;;1.10;1.00;;;;;;;22.45;38.42;102597.16;5007169;27;96966;-75
2023/04/19 00:54:28;;;;;;;1.02;0.93;;;;;;;22.45;38.63;102599.03;5018537;27;96975;-75
2023/04/19 00:56:55;;;;;;;1.27;1.00;;;;;;;22.44;38.61;102595.41;5028225;27;99162;-74
2023/04/19 00:59:23;;;;;;;0.98;0.90;;;;;;;22.45;38.77;102588.06;5019289;27;97249;-75
2023/04/19 01:01:50;;;;;;;1.08;0.98;;;;;;;22.44;38.52;102587.22;5029058;27;97103;-75
2023/04/19 01:04:17;;;;;;;0.73;0.70;;;;;;;22.44;38.58;102592.69;5016207;27;97289;-74
2023/04/19 01:06:45;;;;;;;1.02;0.93;;;;;;;22.43;38.42;102580.00;5024634;27;97995;-74
2023/04/19 01:09:11;;;;;;;1.10;1.00;;;;;;;22.42;38.84;102578.28;5026109;27;96833;-74
2023/04/19 01:11:40;;;;;;;0.80;0.80;;;;;;;22.43;38.47;102573.66;5022761;27;97100;-75
2023/04/19 01:14:09;;;;;;;0.90;0.80;;;;;;;22.42;38.66;102574.66;5020976;27;99057;-75
2023/04/19 01:16:37;;;;;;;0.90;0.90;;;;;;;22.40;38.51;102569.34;5020609;28;96739;-74
2023/04/19 01:19:04;;;;;;;1.02;0.90;;;;;;;22.41;38.48;102568.34;5016623;27;97000;-74
2023/04/19 01:21:31;;;;;;;1.02;0.93;;;;;;;22.41;38.45;102570.19;5022114;27;96775;-75
2023/04/19 01:23:57;;;;;;;0.98;0.98;;;;;;;22.41;38.51;102578.41;5022974;27;99731;-75
2023/04/19 01:26:24;;;;;;;0.98;0.82;;;;;;;22.41;38.69;102573.81;5015662;27;98959;-74
2023/04/19 01:28:50;;;;;;;1.00;0.90;;;;;;;22.41;38.63;102571.06;5005616;27;97015;-74
2023/04/19 01:31:17;;;;;;;0.90;0.90;;;;;;;22.40;38.57;102576.69;5001807;27;97147;-75
2023/04/19 01:33:43;;;;;;;1.02;0.90;;;;;;;22.40;38.57;102568.47;5017846;27;98032;-75
2023/04/19 01:36:11;;;;;;;1.00;0.90;;;;;;;22.40;38.76;102566.59;5021358;27;96996;-74
2023/04/19 01:38:40;;;;;;;0.93;0.90;;;;;;;22.41;38.75;102567.47;5018081;27;96872;-74
2023/04/19 01:41:08;;;;;;;0.90;0.80;;;;;;;22.41;38.87;102570.19;5021219;27;96980;-74
2023/04/19 01:43:34;;;;;;;1.10;1.00;;;;;;;22.40;38.57;102566.59;5020994;27;96896;-75
2023/04/19 01:46:02;;;;;;;1.10;1.00;;;;;;;22.41;38.87;102556.50;5017338;27;96867;-75
2023/04/19 01:48:28;;;;;;;0.93;0.82;;;;;;;22.41;38.60;102564.72;5015144;27;97142;-74
2023/04/19 01:50:55;;;;;;;0.90;0.80;;;;;;;22.40;38.60;102566.59;5020059;27;97105;-75
2023/04/19 01:53:21;;;;;;;1.15;1.00;;;;;;;22.41;38.76;102565.59;5027552;27;97014;-74
2023/04/19 01:55:48;;;;;;;1.00;0.90;;;;;;;22.41;38.39;102564.72;5019600;27;96838;-75
2023/04/19 01:58:15;;;;;;;1.23;0.90;;;;;;;22.40;38.49;102561.13;5022263;27;97078;-74
2023/04/19 02:00:42;;;;;;;1.10;1.00;;;;;;;22.42;38.69;102569.19;5023036;27;97031;-75
2023/04/19 02:03:09;;;;;;;1.10;1.00;;;;;;;22.42;39.06;102567.31;5023869;27;99093;-75
2023/04/19 02:05:38;;;;;;;1.00;0.90;;;;;;;22.41;38.86;102560.13;5021058;27;97576;-75
2023/04/19 02:08:04;;;;;;;0.90;0.90;;;;;;;22.41;38.50;102557.38;5006903;27;96733;-75
2023/04/19 02:10:31;;;;;;;1.00;0.90;;;;;;;22.41;38.63;102562.84;5005467;27;97093;-74
2023/04/19 02:12:57;;;;;;;1.02;0.88;;;;;;;22.41;38.37;102567.47;5017864;27;98463;-75
2023/04/19 02:15:24;;;;;;;0.80;0.80;;;;;;;22.41;38.58;102567.47;5025396;27;99330;-75
2023/04/19 02:17:50;;;;;;;0.90;0.80;;;;;;;22.41;38.63;102568.34;5014022;27;96826;-75
2023/04/19 02:20:18;;;;;;;1.45;1.00;;;;;;;22.41;38.50;102562.00;5028235;27;97928;-75
2023/04/19 02:22:44;;;;;;;1.10;1.00;;;;;;;22.41;38.75;102559.25;5019379;27;100259;-74
2023/04/19 02:25:11;;;;;;;1.00;0.90;;;;;;;22.40;38.60;102558.38;5018186;27;97478;-75
2023/04/19 02:27:37;;;;;;;1.15;0.90;;;;;;;22.40;38.48;102560.25;5019140;27;96938;-74
2023/04/19 02:30:05;;;;;;;1.10;1.00;;;;;;;22.41;38.86;102557.38;5022256;27;97039;-74
2023/04/19 02:32:32;;;;;;;0.70;0.70;;;;;;;22.40;38.56;102561.13;5016435;27;100615;-74
2023/04/19 02:34:59;;;;;;;1.13;1.02;;;;;;;22.40;38.49;102558.38;5009397;28;98335;-74
2023/04/19 02:37:28;;;;;;;0.90;0.77;;;;;;;22.41;38.71;102562.00;5018603;27;96800;-74
2023/04/19 02:39:55;;;;;;;0.85;0.80;;;;;;;22.40;38.64;102560.25;5025327;27;96978;-74
2023/04/19 02:42:22;;;;;;;1.00;0.90;;;;;;;22.40;38.54;102566.59;5026548;27;96969;-74
2023/04/19 02:44:48;;;;;;;0.80;0.80;;;;;;;22.41;38.45;102560.13;5023516;27;98169;-74
2023/04/19 02:47:15;;;;;;;1.00;0.90;;;;;;;22.40;38.70;102561.13;5023591;27;96861;-74
2023/04/19 02:49:41;;;;;;;1.20;1.00;;;;;;;22.41;38.32;102567.47;5019341;27;98029;-74
2023/04/19 02:52:09;;;;;;;0.90;0.80;;;;;;;22.41;38.60;102559.25;5006547;27;98464;-74
2023/04/19 02:54:38;;;;;;;0.93;0.90;;;;;;;22.41;38.63;102562.00;4998298;27;100288;-75
2023/04/19 02:57:06;;;;;;;0.80;0.80;;;;;;;22.40;38.58;102569.34;5026070;27;96627;-74
2023/04/19 02:59:34;;;;;;;0.80;0.80;;;;;;;22.41;38.84;102564.72;5018655;27;97039;-75
2023/04/19 03:02:02;;;;;;;1.00;0.90;;;;;;;22.41;38.28;102573.81;4997162;27;97714;-75
2023/04/19 03:04:30;;;;;;;0.98;0.85;;;;;;;22.40;38.70;102569.34;5019039;27;96870;-75
2023/04/19 03:06:57;;;;;;;0.82;0.77;;;;;;;22.40;38.37;102572.06;5020204;27;96813;-75
2023/04/19 03:09:23;;;;;;;0.82;0.80;;;;;;;22.41;38.58;102571.06;4999029;27;96855;-74
2023/04/19 03:11:50;;;;;;;1.13;1.02;;;;;;;22.42;39.03;102569.19;5014734;27;96889;-74
2023/04/19 03:14:16;;;;;;;1.00;0.88;;;;;;;22.41;38.68;102562.00;5023810;27;97475;-75
2023/04/19 03:16:43;;;;;;;1.05;0.95;;;;;;;22.41;38.87;102562.00;5020266;27;96745;-75
2023/04/19 03:19:10;;;;;;;0.75;0.75;;;;;;;22.42;38.57;102566.47;5008087;27;97161;-74
2023/04/19 03:21:43;;;;;;;1.00;0.90;;;;;;;22.41;38.75;102559.25;5015940;27;96819;-75
2023/04/19 03:24:11;;;;;;;1.00;0.90;;;;;;;22.41;38.51;102556.50;5021946;27;98290;-74
2023/04/19 03:26:41;;;;;;;1.08;0.98;;;;;;;22.41;38.66;102548.31;5003822;27;96731;-75
2023/04/19 03:29:08;;;;;;;1.15;0.90;;;;;;;22.41;38.50;102554.63;5005339;27;97362;-75
2023/04/19 03:31:41;;;;;;;0.90;0.80;;;;;;;22.40;38.32;102557.53;5000825;27;96964;-75
2023/04/19 03:34:10;;;;;;;1.00;0.90;;;;;;;22.41;38.71;102554.63;5021907;27;96787;-74
2023/04/19 03:36:41;;;;;;;1.05;0.95;;;;;;;22.41;38.54;102551.91;5004197;27;96757;-75
2023/04/19 03:39:08;;;;;;;0.85;0.82;;;;;;;22.42;38.43;102555.50;5021361;27;96969;-75
2023/04/19 03:41:39;;;;;;;1.10;0.90;;;;;;;22.42;38.54;102555.50;5019436;27;96800;-74
2023/04/19 03:44:20;;;;;;;0.80;0.80;;;;;;;22.41;38.75;102556.50;5020013;27;98730;-75
2023/04/19 03:46:47;;;;;;;0.85;0.73;;;;;;;22.42;38.81;102558.25;5017823;27;96673;-75
2023/04/19 03:49:18;;;;;;;0.90;0.77;;;;;;;22.41;38.39;102551.03;5002132;27;96956;-75
2023/04/19 03:51:50;;;;;;;0.80;0.77;;;;;;;22.42;38.77;102560.97;5029937;27;96800;-75
2023/04/19 03:54:16;;;;;;;1.15;0.90;;;;;;;22.42;38.55;102561.84;5026133;27;96956;-75
2023/04/19 03:56:43;;;;;;;0.80;0.80;;;;;;;22.42;38.47;102555.50;5022061;27;96842;-75
2023/04/19 03:59:11;;;;;;;0.82;0.82;;;;;;;22.43;38.74;102555.38;5008990;27;97343;-74
2023/04/19 04:01:40;;;;;;;0.60;0.60;;;;;;;22.43;38.79;102562.72;5029593;27;97798;-75
2023/04/19 04:04:08;;;;;;;0.90;0.85;;;;;;;22.43;38.75;102560.84;5021976;27;97613;-75
2023/04/19 04:06:35;;;;;;;0.77;0.77;;;;;;;22.43;38.58;102566.31;5034161;27;96890;-75
2023/04/19 04:09:01;;;;;;;0.93;0.80;;;;;;;22.44;38.55;102561.69;5014778;27;97586;-75
2023/04/19 04:11:29;;;;;;;0.73;0.73;;;;;;;22.44;38.56;102561.69;4999645;27;97676;-74
2023/04/19 04:13:56;;;;;;;0.82;0.73;;;;;;;22.45;38.77;102564.28;5011528;27;99392;-74
2023/04/19 04:16:26;;;;;;;0.80;0.80;;;;;;;22.44;38.72;102568.03;5026227;27;96729;-75
2023/04/19 04:18:54;;;;;;;0.70;0.70;;;;;;;22.43;38.50;102569.03;5023158;27;99424;-74
2023/04/19 04:21:25;;;;;;;0.80;0.80;;;;;;;22.44;38.46;102568.03;5025636;27;96967;-74
2023/04/19 04:23:54;;;;;;;0.68;0.68;;;;;;;22.45;38.21;102574.38;5012097;27;98256;-75
2023/04/19 04:26:38;;;;;;;0.80;0.80;;;;;;;22.43;38.70;102574.53;5022978;27;96944;-74
2023/04/19 04:29:12;;;;;;;1.02;0.93;;;;;;;22.42;38.56;102561.84;5024936;27;96842;-74
2023/04/19 04:31:40;;;;;;;0.80;0.80;;;;;;;22.44;38.70;102565.31;5025167;27;100382;-75
2023/04/19 04:34:08;;;;;;;0.80;0.80;;;;;;;22.44;38.44;102567.16;5015809;27;97631;-74
2023/04/19 04:36:42;;;;;;;0.90;0.80;;;;;;;22.44;38.48;102570.78;5001509;27;97118;-75
2023/04/19 04:39:10;;;;;;;0.88;0.77;;;;;;;22.43;38.70;102555.38;5011449;27;97682;-75
2023/04/19 04:41:40;;;;;;;0.95;0.73;;;;;;;22.44;38.67;102562.56;5015686;27;98649;-74
2023/04/19 04:44:08;;;;;;;0.70;0.70;;;;;;;22.45;38.34;102563.44;5028081;27;99623;-74
2023/04/19 04:46:38;;;;;;;1.10;1.00;;;;;;;22.44;38.52;102559.81;5008530;27;96882;-74
2023/04/19 04:49:06;;;;;;;0.90;0.80;;;;;;;22.45;38.41;102555.22;5021953;27;96901;-74
2023/04/19 04:51:33;;;;;;;0.88;0.80;;;;;;;22.45;38.68;102555.22;5024452;27;96990;-75
2023/04/19 04:54:00;;;;;;;0.77;0.77;;;;;;;22.45;38.52;102563.44;5023542;27;97149;-74
2023/04/19 04:56:27;;;;;;;0.73;0.70;;;;;;;22.44;38.58;102559.81;5018362;27;96942;-75
2023/04/19 04:58:54;;;;;;;1.17;0.90;;;;;;;22.45;38.48;102558.81;5014150;27;97585;-75
2023/04/19 05:01:27;;;;;;;0.70;0.70;;;;;;;22.45;38.80;102552.47;5020197;27;98851;-74
2023/04/19 05:03:53;;;;;;;1.00;0.90;;;;;;;22.45;38.55;102557.94;4996806;27;98609;-74
2023/04/19 05:06:20;;;;;;;0.95;0.85;;;;;;;22.46;38.66;102562.41;5005359;27;96816;-75
2023/04/19 05:08:47;;;;;;;1.00;0.90;;;;;;;22.46;38.43;102565.16;5027948;27;96765;-75
2023/04/19 05:11:19;;;;;;;0.80;0.70;;;;;;;22.46;38.54;102570.63;5022579;27;96880;-75
2023/04/19 05:13:46;;;;;;;1.13;1.02;;;;;;;22.45;38.22;102564.28;5010150;27;99231;-75
2023/04/19 05:16:13;;;;;;;0.98;0.75;;;;;;;22.46;38.53;102567.91;5011374;27;96933;-74
2023/04/19 05:18:43;;;;;;;0.80;0.73;;;;;;;22.46;38.66;102573.38;5021734;27;97429;-75
2023/04/19 05:21:10;;;;;;;0.80;0.70;;;;;;;22.47;38.50;102569.63;5015306;27;98498;-74
2023/04/19 05:23:38;;;;;;;0.70;0.70;;;;;;;22.46;38.75;102574.22;5021326;27;97716;-74
2023/04/19 05:26:04;;;;;;;1.00;0.80;;;;;;;22.46;38.54;102574.22;5029071;27;96935;-75
2023/04/19 05:28:31;;;;;;;0.77;0.77;;;;;;;22.46;38.53;102574.22;5021211;27;96899;-75
2023/04/19 05:31:07;;;;;;;1.15;0.93;;;;;;;22.46;38.78;102578.84;5000955;27;98446;-74
2023/04/19 05:33:40;;;;;;;1.00;0.80;;;;;;;22.46;38.77;102576.97;5012280;27;99731;-74
2023/04/19 05:36:08;;;;;;;1.27;0.93;;;;;;;22.46;38.72;102576.97;5011398;27;97226;-74
2023/04/19 05:38:35;;;;;;;0.75;0.68;;;;;;;22.48;38.58;102576.81;5023248;27;96858;-74
2023/04/19 05:41:03;;;;;;;1.00;0.80;;;;;;;22.48;38.56;102579.56;5012664;28;97737;-75
2023/04/19 05:43:30;;;;;;;1.00;0.90;;;;;;;22.48;38.72;102568.63;5016247;28;98317;-75
2023/04/19 05:45:57;;;;;;;0.90;0.80;;;;;;;22.48;38.62;102574.09;5009667;28;97224;-75
2023/04/19 05:48:27;;;;;;;0.70;0.65;;;;;;;22.48;38.21;102580.44;5022920;27;97918;-74
2023/04/19 05:51:13;;;;;;;0.90;0.70;;;;;;;22.48;38.73;102590.50;5016702;28;98776;-75
2023/04/19 05:53:48;;;;;;;0.70;0.63;;;;;;;22.47;38.52;102578.69;5016894;28;97017;-75
2023/04/19 05:56:15;;;;;;;0.73;0.63;;;;;;;22.47;38.76;102581.44;4995965;28;96815;-75
2023/04/19 05:58:42;;;;;;;0.80;0.63;;;;;;;22.49;38.41;102573.06;4998910;28;97402;-75
2023/04/19 06:01:08;;;;;;;0.80;0.80;;;;;;;22.49;38.40;102578.56;5025070;28;98522;-74
2023/04/19 06:03:35;;;;;;;0.98;0.80;;;;;;;22.49;38.56;102576.69;5022809;28;96865;-74
2023/04/19 06:06:02;;;;;;;0.93;0.82;;;;;;;22.48;38.45;102574.94;5020562;28;97111;-76
2023/04/19 06:08:28;;;;;;;0.90;0.90;;;;;;;22.49;38.67;102573.94;5023659;28;98985;-75
2023/04/19 06:10:55;;;;;;;1.08;0.85;;;;;;;22.49;38.82;102573.94;5023532;28;99704;-74
2023/04/19 06:13:33;;;;;;;0.77;0.77;;;;;;;22.49;38.63;102581.28;5016702;28;96937;-75
2023/04/19 06:16:00;;;;;;;0.70;0.70;;;;;;;22.49;38.51;102573.06;5023618;28;97060;-74
2023/04/19 06:18:26;;;;;;;0.90;0.70;;;;;;;22.48;38.44;102574.94;5007195;28;96901;-75
2023/04/19 06:20:53;;;;;;;0.80;0.70;;;;;;;22.48;38.38;102579.56;5031701;27;96879;-75
2023/04/19 06:23:19;;;;;;;0.70;0.70;;;;;;;22.48;38.36;102572.22;5011992;28;99382;-75
2023/04/19 06:25:47;;;;;;;0.98;0.88;;;;;;;22.47;38.71;102575.97;5021304;28;96946;-75
2023/04/19 06:28:14;;;;;;;0.80;0.80;;;;;;;22.47;38.58;102577.84;5026749;28;96876;-75
2023/04/19 06:30:41;;;;;;;0.80;0.70;;;;;;;22.47;38.76;102583.31;5011910;28;97031;-75
2023/04/19 06:33:07;;;;;;;0.85;0.85;;;;;;;22.47;38.58;102586.06;5013461;28;97211;-75
2023/04/19 06:35:34;;;;;;;0.70;0.70;;;;;;;22.46;38.40;102598.00;5014338;28;97670;-74
2023/04/19 06:38:00;;;;;;;0.93;0.85;;;;;;;22.46;38.61;102587.06;5016604;28;97075;-75
2023/04/19 06:40:28;;;;;;;0.75;0.70;;;;;;;22.47;38.67;102594.25;5011727;28;98482;-75
2023/04/19 06:42:54;;;;;;;0.82;0.70;;;;;;;22.46;38.59;102578.84;5027705;28;96918;-75
2023/04/19 06:45:21;;;;;;;1.00;0.90;;;;;;;22.45;38.37;102577.13;5023383;28;97163;-75
2023/04/19 06:47:48;;;;;;;0.85;0.85;;;;;;;22.46;38.29;102578.84;5030095;27;96803;-74
2023/04/19 06:50:15;;;;;;;1.00;0.85;;;;;;;22.46;38.61;102581.59;5032138;28;97122;-75
2023/04/19 06:52:42;;;;;;;1.05;0.88;;;;;;;22.44;38.22;102583.59;5031377;28;96948;-75
2023/04/19 06:55:08;;;;;;;1.00;0.90;;;;;;;22.45;38.36;102590.81;5031905;28;97063;-75
2023/04/19 06:57:35;;;;;;;0.80;0.80;;;;;;;22.44;38.28;102579.00;5019438;28;96733;-75
2023/04/19 07:00:03;;;;;;;0.88;0.80;;;;;;;22.46;38.52;102587.06;5032196;28;96808;-74
2023/04/19 07:02:29;;;;;;;1.13;0.80;;;;;;;22.44;38.48;102589.06;5020664;28;97182;-75
2023/04/19 07:04:56;;;;;;;1.10;0.98;;;;;;;22.44;38.29;102584.47;5019443;28;96991;-75
2023/04/19 07:07:22;;;;;;;1.10;1.00;;;;;;;22.44;38.44;102575.38;5031582;28;97072;-75
2023/04/19 07:09:49;;;;;;;1.05;0.85;;;;;;;22.43;38.27;102593.69;5019969;28;97930;-74
2023/04/19 07:12:16;;;;;;;1.10;1.00;;;;;;;22.42;38.43;102574.66;5031576;28;96955;-75
2023/04/19 07:14:42;;;;;;;1.10;0.90;;;;;;;22.42;38.15;102575.53;5031691;27;96816;-74
2023/04/19 07:17:09;;;;;;;1.00;0.90;;;;;;;22.41;38.47;102573.81;5020837;28;97609;-75
2023/04/19 07:19:35;;;;;;;0.80;0.80;;;;;;;22.42;38.32;102575.53;5020706;27;97414;-74
2023/04/19 07:22:02;;;;;;;0.90;0.80;;;;;;;22.41;38.25;102573.81;5031062;28;97752;-75
2023/04/19 07:24:30;;;;;;;1.13;1.00;;;;;;;22.42;38.16;102574.66;4999628;28;96660;-75
2023/04/19 07:26:57;;;;;;;0.88;0.88;;;;;;;22.41;38.20;102582.00;5013009;28;96901;-75
2023/04/19 07:29:24;;;;;;;1.15;0.82;;;;;;;22.41;38.14;102590.22;5035198;28;96905;-75
2023/04/19 07:31:50;;;;;;;1.00;0.90;;;;;;;22.41;38.21;102579.28;5034592;27;97873;-75
2023/04/19 07:34:17;;;;;;;0.93;0.90;;;;;;;22.40;38.14;102588.50;5023502;28;96775;-74
2023/04/19 07:36:44;;;;;;;1.75;0.95;;;;;;;22.41;38.37;102583.88;5036996;27;96970;-75
2023/04/19 07:39:10;;;;;;;1.13;0.95;;;;;;;22.40;38.43;102580.28;5033172;28;96846;-75
2023/04/19 07:41:37;;;;;;;1.10;1.00;;;;;;;22.40;38.46;102582.16;5024429;28;97544;-75
2023/04/19 07:44:04;;;;;;;1.10;0.90;;;;;;;22.39;38.14;102575.81;5026221;27;96879;-74
2023/04/19 07:46:30;;;;;;;2.28;0.98;;;;;;;22.39;38.31;102577.69;5035637;28;96626;-75
2023/04/19 07:48:57;;;;;;;1.20;1.00;;;;;;;22.40;38.00;102585.75;5034622;27;97141;-75
2023/04/19 07:51:24;;;;;;;1.20;0.82;;;;;;;22.39;37.93;102589.50;5017037;28;97960;-75
2023/04/19 07:53:50;;;;;;;0.98;0.88;;;;;;;22.40;38.19;102587.63;5026146;27;96786;-74
2023/04/19 07:56:18;;;;;;;0.90;0.80;;;;;;;22.39;38.12;102585.91;5013865;28;96949;-75
2023/04/19 07:58:45;;;;;;;1.23;1.00;;;;;;;22.39;38.08;102585.91;5018919;27;97419;-75
2023/04/19 08:01:22;;;;;;;1.02;0.93;;;;;;;22.40;38.09;102576.69;5018344;28;96705;-75
2023/04/19 08:03:49;;;;;;;1.33;0.90;;;;;;;22.39;38.09;102580.44;5012627;28;96793;-75
2023/04/19 08:06:16;;;;;;;1.30;1.00;;;;;;;22.38;37.99;102574.09;5011868;28;97328;-75
2023/04/19 08:08:43;;;;;;;1.00;0.88;;;;;;;22.40;38.16;102579.44;5015700;28;97635;-75
2023/04/19 08:11:09;;;;;;;1.08;0.98;;;;;;;22.39;37.99;102583.16;5029501;28;96658;-74
2023/04/19 08:13:36;;;;;;;1.27;1.00;;;;;;;22.40;38.02;102576.69;5016342;27;96639;-75
2023/04/19 08:16:05;;;;;;;1.70;0.98;;;;;;;22.40;38.13;102573.94;5012956;28;96769;-75
2023/04/19 08:18:34;;;;;;;1.10;1.00;;;;;;;22.39;38.06;102581.28;5027493;28;97045;-74
2023/04/19 08:21:01;;;;;;;1.10;1.00;;;;;;;22.39;37.84;102586.78;5013979;28;96799;-74
2023/04/19 08:23:28;;;;;;;1.50;1.10;;;;;;;22.40;38.16;102584.91;5028228;28;97233;-75
2023/04/19 08:26:03;;;;;;;;;;;;;;;22.35;38.01;102573.53;5022896;28;96735;-75
2023/04/19 08:28:30;;;;;;;1.30;1.15;;;;;;;22.35;38.13;102576.25;5020886;28;96773;-75
2023/04/19 08:30:57;;;;;;;1.30;1.20;;;;;;;22.37;38.08;102571.50;5024047;27;98275;-75
2023/04/19 08:33:24;;;;;;;1.10;1.00;;;;;;;22.37;37.94;102588.78;5004900;28;97020;-75
2023/04/19 08:35:50;;;;;;;1.17;1.08;;;;;;;22.36;38.13;102570.63;5020609;28;96719;-75
2023/04/19 08:38:17;;;;;;;1.27;1.10;;;;;;;22.37;37.82;102574.25;5012919;28;97356;-76
2023/04/19 08:40:51;;;;;;;1.42;1.20;;;;;;;22.37;38.00;102569.63;5031034;28;99348;-75
2023/04/19 08:43:24;;;;;;;1.90;1.05;;;;;;;22.37;38.03;102576.97;5024650;28;96699;-75
2023/04/19 08:45:52;;;;;;;1.83;1.10;;;;;;;22.37;37.52;102586.06;5014240;28;96859;-75
2023/04/19 08:48:20;;;;;;;1.35;1.13;;;;;;;22.37;37.62;102583.31;5023556;27;98037;-74
2023/04/19 08:50:48;;;;;;;1.50;1.40;;;;;;;22.37;37.44;102575.09;5031234;28;97833;-76
2023/04/19 08:53:33;;;;;;;1.30;1.20;;;;;;;22.37;37.79;102572.38;5023141;28;97150;-75
2023/04/19 08:56:01;;;;;;;1.30;1.20;;;;;;;22.36;37.47;102570.63;5027536;28;96657;-75
2023/04/19 08:58:32;;;;;;;1.40;1.30;;;;;;;22.36;37.30;102565.16;5032943;28;96835;-75
2023/04/19 09:01:18;;;;;;;1.33;1.13;;;;;;;22.36;37.34;102567.03;5017879;28;97465;-75
2023/04/19 09:04:05;;;;;;;1.27;1.10;;;;;;;22.36;37.33;102567.03;5020285;28;96696;-75
2023/04/19 09:06:52;;;;;;;1.30;1.17;;;;;;;22.35;37.23;102568.91;5011800;28;98922;-75
2023/04/19 09:09:26;;;;;;;1.67;1.00;;;;;;;22.36;37.45;102570.63;5012380;28;98205;-75
2023/04/19 09:11:57;;;;;;;1.38;1.02;;;;;;;22.36;37.13;102565.16;5026992;28;96789;-75
2023/04/19 09:14:25;;;;;;;1.17;1.00;;;;;;;22.35;37.29;102560.69;5014617;28;96871;-75
2023/04/19 09:16:52;;;;;;;1.73;1.10;;;;;;;22.37;37.52;102560.56;5013456;28;96748;-75
2023/04/19 09:19:19;;;;;;;1.42;1.15;;;;;;;22.36;37.53;102581.59;5016038;28;97229;-74
2023/04/19 09:21:52;;;;;;;1.70;1.27;;;;;;;22.36;37.40;102570.63;5011501;28;96728;-75
2023/04/19 09:24:37;;;;;;;1.30;1.20;;;;;;;22.37;37.32;102566.88;5018508;28;96811;-74
2023/04/19 09:27:26;;;;;;;1.50;1.15;;;;;;;22.36;37.10;102567.03;5027926;28;96853;-75
2023/04/19 09:29:58;;;;;;;1.33;1.05;;;;;;;22.38;37.14;102581.44;5021987;28;96914;-75
2023/04/19 09:32:26;;;;;;;3.33;1.25;;;;;;;22.37;37.30;102583.31;5030971;28;97331;-75
2023/04/19 09:34:57;;;;;;;1.73;1.30;;;;;;;22.37;37.35;102564.16;5031039;28;97117;-76
2023/04/19 09:37:25;;;;;;;1.30;1.10;;;;;;;22.38;37.11;102552.19;5031929;28;97238;-75
2023/04/19 09:40:23;;;;;;;1.70;1.35;;;;;;;22.37;37.25;102564.16;5021177;28;98169;-76
2023/04/19 09:42:49;;;;;;;1.70;1.20;;;;;;;22.37;37.21;102566.88;5014777;28;97612;-76
2023/04/19 09:45:19;;;;;;;3.35;1.30;;;;;;;22.37;37.23;102566.88;5030902;28;97670;-74
2023/04/19 09:48:06;;;;;;;1.27;1.08;;;;;;;22.38;37.19;102575.97;5017153;28;96937;-75
2023/04/19 09:50:34;;;;;;;1.65;1.13;;;;;;;22.37;36.84;102555.06;5000112;28;98998;-75
2023/04/19 09:53:22;;;;;;;1.58;1.30;;;;;;;22.37;37.28;102552.34;5014706;28;99157;-75
2023/04/19 09:55:49;;;;;;;1.67;1.48;;;;;;;22.38;37.05;102549.47;5011663;28;96665;-75
2023/04/19 09:58:27;;;;;;;1.92;1.20;;;;;;;22.38;37.02;102548.59;5024328;28;97736;-75
2023/04/19 10:01:13;;;;;;;1.98;1.20;;;;;;;22.39;36.72;102537.50;5018447;28;97841;-75
2023/04/19 10:03:48;;;;;;;1.55;1.10;;;;;;;22.41;36.95;102540.94;5020410;28;96929;-75
2023/04/19 10:06:17;;;;;;;1.20;1.10;;;;;;;22.40;37.06;102544.69;5019622;28;96695;-75
2023/04/19 10:08:48;;;;;;;2.10;1.58;;;;;;;22.41;36.72;102546.44;5022424;28;96816;-75
2023/04/19 10:11:16;;;;;;;1.58;1.02;;;;;;;22.43;36.74;102540.81;5015931;27;97422;-75
2023/04/19 10:13:46;;;;;;;1.60;1.13;;;;;;;22.45;36.67;102541.53;5011064;28;97875;-75
2023/04/19 10:16:13;;;;;;;1.25;1.10;;;;;;;22.45;36.87;102536.91;5021749;28;96839;-75
2023/04/19 10:18:48;;;;;;;1.40;1.20;;;;;;;22.47;36.83;102536.78;5015277;27;96327;-75
2023/04/19 10:21:16;;;;;;;1.50;1.30;;;;;;;22.47;36.61;102542.25;5010805;28;97673;-75
2023/04/19 10:23:42;;;;;;;1.25;1.10;;;;;;;22.48;36.85;102530.28;5011235;28;97622;-75
2023/04/19 10:26:09;;;;;;;1.20;1.10;;;;;;;22.49;36.75;102542.97;5010085;28;96883;-75
2023/04/19 10:28:36;;;;;;;1.63;1.52;;;;;;;22.49;36.67;102532.00;5011782;28;96869;-75
2023/04/19 10:31:04;;;;;;;1.45;1.35;;;;;;;22.50;36.56;102536.47;5009486;28;97980;-75
2023/04/19 10:33:34;;;;;;;1.42;1.20;;;;;;;22.51;36.73;102522.63;5009619;28;98857;-75
2023/04/19 10:36:01;;;;;;;1.02;0.93;;;;;;;22.53;36.76;102530.72;5008893;28;96851;-75
2023/04/19 10:38:39;;;;;;;1.35;0.98;;;;;;;22.54;36.45;102531.56;5021982;28;97033;-75
2023/04/19 10:41:10;;;;;;;1.85;1.30;;;;;;;22.53;36.76;102533.44;5015272;28;96616;-75
2023/04/19 10:43:46;;;;;;;1.40;1.10;;;;;;;22.55;36.79;102533.31;5030169;28;96766;-75
2023/04/19 10:46:14;;;;;;;1.40;1.00;;;;;;;22.55;36.57;102527.81;5029860;28;96844;-75
2023/04/19 10:48:57;;;;;;;1.30;1.10;;;;;;;22.55;36.52;102525.94;5019202;28;96882;-75
2023/04/19 10:51:31;;;;;;;1.58;1.17;;;;;;;22.55;36.53;102517.72;5028432;28;97904;-75
2023/04/19 10:53:59;;;;;;;2.55;1.17;;;;;;;22.55;36.89;102516.88;5029800;27;97386;-75
2023/04/19 10:56:32;;;;;;;1.83;1.20;;;;;;;22.56;36.65;102518.59;5015729;28;98354;-75
2023/04/19 10:59:03;;;;;;;1.73;1.20;;;;;;;22.56;36.35;102515.84;5012906;28;97029;-75
2023/04/19 11:01:41;;;;;;;1.05;0.95;;;;;;;22.56;36.47;102505.78;5024664;28;96721;-75
2023/04/19 11:04:12;;;;;;;1.20;1.10;;;;;;;22.57;36.77;102509.38;5021296;28;97575;-77
2023/04/19 11:06:51;;;;;;;1.40;1.10;;;;;;;22.55;36.48;102501.31;5030075;28;97007;-75
2023/04/19 11:09:37;;;;;;;1.10;1.00;;;;;;;22.57;36.40;102502.03;5031246;27;97191;-75
2023/04/19 11:12:11;;;;;;;1.90;1.20;;;;;;;22.55;36.64;102501.31;5017912;28;96776;-75
2023/04/19 11:14:42;;;;;;;1.10;1.00;;;;;;;22.55;36.45;102503.19;5030147;27;97483;-75
2023/04/19 11:17:26;;;;;;;1.33;1.17;;;;;;;22.56;36.63;102489.34;5016999;28;96612;-75
2023/04/19 11:20:00;;;;;;;1.17;1.00;;;;;;;22.56;36.68;102489.34;5031376;27;96602;-76
2023/04/19 11:22:46;;;;;;;1.15;1.02;;;;;;;22.56;36.63;102478.38;5029480;28;97898;-75
2023/04/19 11:25:17;;;;;;;;;;;;;;;22.51;36.80;102484.31;5029311;28;96784;-75
2023/04/19 11:27:46;;;;;;;1.20;1.10;;;;;;;22.51;36.37;102484.31;5029599;28;96795;-75
2023/04/19 11:30:15;;;;;;;1.20;1.02;;;;;;;22.54;36.35;102485.88;5009821;28;96888;-75
2023/04/19 11:32:52;;;;;;;1.85;1.50;;;;;;;22.55;36.47;102476.66;5017911;28;96870;-75
2023/04/19 11:35:20;;;;;;;1.20;1.00;;;;;;;22.55;36.45;102473.91;5028740;28;96886;-76